createdAt,value
2023-04-25T17:34:53.916Z,11.50
2023-04-25T17:39:58.049Z,10.80
2023-04-25T17:45:02.131Z,10.60
2023-04-25T17:50:10.185Z,10.60
2023-04-25T17:55:14.582Z,10.50
2023-04-25T18:00:21.173Z,10.30
2023-04-25T18:05:27.860Z,10.20
2023-04-25T18:10:34.374Z,10.10
2023-04-25T18:15:39.118Z,9.90
2023-04-25T18:20:46.969Z,9.80
2023-04-25T18:25:51.552Z,9.70
2023-04-25T18:30:56.176Z,9.60
2023-04-25T18:36:03.760Z,9.50
2023-04-25T18:41:42.156Z,9.40
2023-04-25T18:46:46.622Z,9.30
2023-04-25T18:51:55.621Z,9.20
2023-04-25T18:57:00.704Z,9.10
2023-04-25T19:02:06.555Z,8.90
2023-04-25T19:07:14.234Z,8.70
2023-04-25T19:12:18.237Z,8.60
2023-04-25T19:17:22.172Z,8.40
2023-04-25T19:22:28.338Z,8.30
2023-04-25T19:27:33.192Z,8.20
2023-04-25T19:32:37.491Z,8.10
2023-04-25T19:37:45.851Z,8.00
2023-04-25T19:42:50.349Z,7.90
2023-04-25T19:47:55.457Z,7.80
2023-04-25T19:53:01.683Z,7.70
2023-04-25T19:58:06.513Z,7.60
2023-04-25T20:03:11.874Z,7.60
2023-04-25T20:08:18.426Z,7.50
2023-04-25T20:13:22.708Z,7.40
2023-04-25T20:18:26.917Z,7.30
2023-04-25T20:23:33.375Z,7.20
2023-04-25T20:28:37.525Z,7.20
2023-04-25T20:33:43.131Z,7.10
2023-04-25T20:38:49.073Z,7.00
2023-04-25T20:43:53.812Z,6.90
2023-04-25T20:49:02.445Z,6.80
2023-04-25T20:54:08.991Z,6.70
2023-04-25T20:59:14.895Z,6.70
2023-04-25T21:04:19.069Z,6.60
2023-04-25T21:09:25.201Z,6.50
2023-04-25T21:14:29.384Z,6.50
2023-04-25T21:19:33.674Z,6.40
2023-04-25T21:24:39.717Z,6.40
2023-04-25T21:29:43.764Z,6.40
2023-04-25T21:34:47.820Z,6.30
2023-04-25T21:39:54.221Z,6.30
2023-04-25T21:44:58.301Z,6.40
2023-04-25T21:50:03.333Z,6.60
2023-04-25T21:55:12.212Z,6.70
